Time;durP1;ratioP1;P1;durP2;ratioP2;P2;SDS_P1;SDS_P2;PMS_P1;PMS_P2;Temp;Humidity;BMP_temperature;BMP_pressure;BME280_temperature;BME280_humidity;BME280_pressure;Samples;Min_cycle;Max_cycle;Signal;HPM_P1;HPM_P2
2021/10/24 00:02:01;;;;;;;20.05;19.02;;;;;;;;;;5070391;28;20040;-50
2021/10/24 00:04:28;;;;;;;19.85;19.00;;;;;;;;;;5067594;28;20032;-47
2021/10/24 00:06:55;;;;;;;20.45;19.42;;;;;;;;;;5068203;28;20037;-46
2021/10/24 00:09:21;;;;;;;20.77;19.77;;;;;;;;;;5065996;28;20542;-45
2021/10/24 00:11:48;;;;;;;19.83;18.75;;;;;;;;;;5070217;28;20090;-49
2021/10/24 00:14:15;;;;;;;20.33;19.45;;;;;;;;;;5070647;28;20050;-50
2021/10/24 00:16:41;;;;;;;20.60;19.80;;;;;;;;;;5067814;28;20040;-46
2021/10/24 00:19:08;;;;;;;20.27;19.10;;;;;;;;;;5058136;28;20064;-45
2021/10/24 00:21:35;;;;;;;19.73;18.77;;;;;;;;;;5063612;28;20068;-46
2021/10/24 00:24:02;;;;;;;23.60;22.05;;;;;;;;;;5069531;28;20044;-46
2021/10/24 00:26:29;;;;;;;18.73;18.13;;;;;;;;;;5070330;28;20068;-47
2021/10/24 00:28:56;;;;;;;19.55;18.80;;;;;;;;;;5067880;28;20382;-47
2021/10/24 00:31:22;;;;;;;19.75;18.63;;;;;;;;;;5068703;28;20044;-50
2021/10/24 00:33:49;;;;;;;19.27;18.38;;;;;;;;;;5069214;28;20043;-48
2021/10/24 00:36:20;;;;;;;19.80;18.90;;;;;;;;;;5055801;28;20465;-48
2021/10/24 00:38:47;;;;;;;19.80;19.02;;;;;;;;;;5069730;28;20040;-46
2021/10/24 00:41:14;;;;;;;20.98;19.98;;;;;;;;;;5067076;28;20037;-46
2021/10/24 00:43:41;;;;;;;19.63;18.63;;;;;;;;;;5070974;28;20045;-47
2021/10/24 00:46:08;;;;;;;19.75;18.95;;;;;;;;;;5067797;28;20032;-49
2021/10/24 00:48:52;;;;;;;21.65;20.50;;;;;;;;;;5060219;28;20044;-48
2021/10/24 00:51:18;;;;;;;18.48;17.58;;;;;;;;;;5062677;28;20112;-48
2021/10/24 00:53:45;;;;;;;23.58;22.08;;;;;;;;;;5063758;28;20057;-47
2021/10/24 00:56:12;;;;;;;22.40;21.33;;;;;;;;;;5068972;28;20036;-47
2021/10/24 00:58:40;;;;;;;18.88;18.08;;;;;;;;;;5063319;28;20041;-48
2021/10/24 01:01:07;;;;;;;20.48;19.33;;;;;;;;;;5060509;28;20040;-46
2021/10/24 01:03:35;;;;;;;20.60;19.55;;;;;;;;;;5070314;28;20042;-48
2021/10/24 01:06:03;;;;;;;19.10;18.42;;;;;;;;;;5067909;28;20106;-49
2021/10/24 01:08:31;;;;;;;19.73;18.65;;;;;;;;;;5068364;28;20055;-47
2021/10/24 01:10:58;;;;;;;19.13;18.48;;;;;;;;;;5069651;28;20063;-50
2021/10/24 01:13:25;;;;;;;18.85;18.15;;;;;;;;;;5067578;28;20028;-48
2021/10/24 01:15:51;;;;;;;17.52;16.73;;;;;;;;;;5067626;28;20147;-46
2021/10/24 01:18:18;;;;;;;16.77;16.27;;;;;;;;;;5064327;28;20044;-46
2021/10/24 01:20:48;;;;;;;15.48;14.77;;;;;;;;;;5059277;28;20378;-49
2021/10/24 01:23:14;;;;;;;14.68;14.15;;;;;;;;;;5069067;28;20072;-46
2021/10/24 01:25:41;;;;;;;15.20;14.50;;;;;;;;;;5068270;28;20067;-46
2021/10/24 01:28:08;;;;;;;9.32;8.70;;;;;;;;;;5052822;28;20041;-49
2021/10/24 01:30:35;;;;;;;11.70;10.63;;;;;;;;;;5063674;28;20052;-47
2021/10/24 01:33:01;;;;;;;10.35;10.05;;;;;;;;;;5064184;28;20075;-45
2021/10/24 01:35:28;;;;;;;9.68;9.38;;;;;;;;;;5059311;28;20045;-49
2021/10/24 01:37:56;;;;;;;7.15;6.78;;;;;;;;;;5062186;28;20045;-49
2021/10/24 01:40:22;;;;;;;4.18;4.05;;;;;;;;;;5068124;28;20106;-45
2021/10/24 01:42:53;;;;;;;5.25;4.95;;;;;;;;;;5062315;28;20474;-45
2021/10/24 01:45:23;;;;;;;5.07;4.88;;;;;;;;;;5057497;28;20534;-47
2021/10/24 01:47:50;;;;;;;4.63;4.43;;;;;;;;;;5068888;28;20042;-48
2021/10/24 01:50:17;;;;;;;3.25;3.15;;;;;;;;;;5068032;28;20033;-51
2021/10/24 01:52:47;;;;;;;3.85;3.63;;;;;;;;;;5066116;28;20039;-49
2021/10/24 01:55:14;;;;;;;6.75;4.28;;;;;;;;;;5061605;28;20041;-46
2021/10/24 01:57:43;;;;;;;3.58;3.35;;;;;;;;;;5064435;28;20064;-50
2021/10/24 02:00:11;;;;;;;3.88;3.58;;;;;;;;;;5070052;28;20051;-46
2021/10/24 02:02:37;;;;;;;4.18;3.90;;;;;;;;;;5064498;28;20044;-47
2021/10/24 02:05:05;;;;;;;2.92;2.55;;;;;;;;;;5059065;28;20048;-47
2021/10/24 02:07:31;;;;;;;4.53;4.20;;;;;;;;;;5064094;28;20041;-51
2021/10/24 02:09:58;;;;;;;5.45;2.97;;;;;;;;;;5061021;28;20028;-49
2021/10/24 02:12:25;;;;;;;3.25;3.05;;;;;;;;;;5053202;28;20091;-48
2021/10/24 02:14:52;;;;;;;3.15;3.03;;;;;;;;;;5066242;28;20052;-48
2021/10/24 02:17:18;;;;;;;2.75;2.55;;;;;;;;;;5067564;28;20082;-49
2021/10/24 02:19:45;;;;;;;2.80;2.67;;;;;;;;;;5066885;28;20075;-48
2021/10/24 02:22:12;;;;;;;5.35;5.03;;;;;;;;;;5060037;28;20091;-48
2021/10/24 02:24:39;;;;;;;7.28;6.95;;;;;;;;;;5066548;28;20032;-46
2021/10/24 02:27:06;;;;;;;12.23;11.82;;;;;;;;;;5067893;28;20457;-48
2021/10/24 02:29:33;;;;;;;9.45;9.18;;;;;;;;;;5066838;28;20516;-48
2021/10/24 02:31:59;;;;;;;14.40;13.82;;;;;;;;;;5057399;28;20064;-48
2021/10/24 02:34:26;;;;;;;14.18;13.73;;;;;;;;;;5061640;28;20039;-47
2021/10/24 02:36:53;;;;;;;11.80;11.60;;;;;;;;;;5051492;28;20163;-46
2021/10/24 02:39:19;;;;;;;9.80;9.57;;;;;;;;;;5060248;28;20049;-48
2021/10/24 02:41:46;;;;;;;10.15;9.85;;;;;;;;;;5066045;28;20028;-46
2021/10/24 02:44:14;;;;;;;9.07;8.85;;;;;;;;;;5068180;28;20045;-46
2021/10/24 02:46:41;;;;;;;7.22;6.85;;;;;;;;;;5066171;28;20033;-51
2021/10/24 02:49:08;;;;;;;7.57;7.47;;;;;;;;;;5054714;28;20029;-49
2021/10/24 02:51:37;;;;;;;6.88;6.68;;;;;;;;;;5068977;28;20734;-45
2021/10/24 02:54:04;;;;;;;8.52;8.02;;;;;;;;;;5057109;28;20503;-49
2021/10/24 02:56:30;;;;;;;6.78;6.53;;;;;;;;;;5067785;28;20049;-49
2021/10/24 02:58:57;;;;;;;4.43;4.20;;;;;;;;;;5066082;28;20108;-47
2021/10/24 03:01:24;;;;;;;3.95;3.75;;;;;;;;;;5066388;28;20158;-46
2021/10/24 03:03:51;;;;;;;4.60;4.40;;;;;;;;;;5060561;28;20047;-49
2021/10/24 03:06:18;;;;;;;2.33;2.22;;;;;;;;;;5062973;28;20036;-48
2021/10/24 03:08:44;;;;;;;2.88;2.67;;;;;;;;;;5071029;28;20045;-47
2021/10/24 03:11:11;;;;;;;3.05;2.92;;;;;;;;;;5067829;28;20037;-48
2021/10/24 03:13:38;;;;;;;7.88;7.60;;;;;;;;;;5064309;28;20098;-46
2021/10/24 03:16:05;;;;;;;8.63;8.52;;;;;;;;;;5072570;28;20046;-47
2021/10/24 03:18:32;;;;;;;6.90;6.70;;;;;;;;;;5068798;28;20051;-49
2021/10/24 03:20:58;;;;;;;5.78;5.57;;;;;;;;;;5073003;28;20093;-49
2021/10/24 03:23:25;;;;;;;6.00;5.70;;;;;;;;;;5069723;28;20041;-46
2021/10/24 03:25:52;;;;;;;4.88;4.45;;;;;;;;;;5071045;28;20110;-49
2021/10/24 03:28:19;;;;;;;4.00;3.80;;;;;;;;;;5068123;28;20501;-48
2021/10/24 03:30:45;;;;;;;3.90;3.67;;;;;;;;;;5070152;28;20378;-45
2021/10/24 03:33:12;;;;;;;2.45;2.30;;;;;;;;;;5062065;28;20641;-47
2021/10/24 03:35:39;;;;;;;3.10;2.90;;;;;;;;;;5070866;28;20064;-45
2021/10/24 03:38:06;;;;;;;2.40;2.30;;;;;;;;;;5070935;28;20148;-48
2021/10/24 03:40:32;;;;;;;2.50;2.40;;;;;;;;;;5068710;28;20048;-46
2021/10/24 03:42:59;;;;;;;2.90;2.38;;;;;;;;;;5069010;28;20036;-46
2021/10/24 03:45:26;;;;;;;2.78;2.67;;;;;;;;;;5070605;28;20119;-48
2021/10/24 03:47:53;;;;;;;3.05;2.95;;;;;;;;;;5068846;28;20048;-49
2021/10/24 03:50:19;;;;;;;3.33;3.22;;;;;;;;;;5069366;28;20045;-50
2021/10/24 03:52:47;;;;;;;2.85;2.75;;;;;;;;;;5063241;28;20045;-45
2021/10/24 03:55:14;;;;;;;3.45;3.35;;;;;;;;;;5071853;28;20046;-49
2021/10/24 03:57:41;;;;;;;2.90;2.10;;;;;;;;;;5053242;28;20541;-48
2021/10/24 04:00:08;;;;;;;6.47;6.28;;;;;;;;;;5070067;28;20036;-46
2021/10/24 04:02:52;;;;;;;9.38;9.07;;;;;;;;;;5069681;28;20042;-48
2021/10/24 04:05:19;;;;;;;5.68;5.60;;;;;;;;;;5066999;28;20036;-47
2021/10/24 04:07:47;;;;;;;5.80;5.70;;;;;;;;;;5065832;28;20480;-48
2021/10/24 04:10:18;;;;;;;5.00;4.82;;;;;;;;;;5067740;28;20695;-49
2021/10/24 04:12:45;;;;;;;5.32;5.22;;;;;;;;;;5060159;28;20578;-47
2021/10/24 04:15:12;;;;;;;4.50;4.40;;;;;;;;;;5062493;28;20419;-47
2021/10/24 04:17:40;;;;;;;1.55;1.50;;;;;;;;;;5070975;28;20041;-51
2021/10/24 04:20:07;;;;;;;5.82;5.78;;;;;;;;;;5064707;28;20116;-49
2021/10/24 04:22:35;;;;;;;9.38;9.07;;;;;;;;;;5064871;28;20523;-47
2021/10/24 04:25:02;;;;;;;8.77;8.68;;;;;;;;;;5066824;28;20036;-49
2021/10/24 04:27:29;;;;;;;8.27;7.97;;;;;;;;;;5066844;28;20059;-45
2021/10/24 04:29:56;;;;;;;9.00;8.90;;;;;;;;;;5070457;28;20041;-46
2021/10/24 04:32:23;;;;;;;9.30;9.07;;;;;;;;;;5063976;28;20069;-51
2021/10/24 04:34:50;;;;;;;10.63;10.15;;;;;;;;;;5060055;28;20070;-49
2021/10/24 04:37:17;;;;;;;10.82;10.57;;;;;;;;;;5066996;28;20393;-47
2021/10/24 04:39:43;;;;;;;12.05;11.95;;;;;;;;;;5067637;28;20055;-48
2021/10/24 04:42:10;;;;;;;14.23;14.00;;;;;;;;;;5067087;28;20042;-48
2021/10/24 04:44:37;;;;;;;14.38;13.88;;;;;;;;;;5063079;28;20132;-48
2021/10/24 04:47:05;;;;;;;12.32;12.23;;;;;;;;;;5058215;28;20040;-47
2021/10/24 04:49:31;;;;;;;12.63;12.30;;;;;;;;;;5071085;28;20060;-48
2021/10/24 04:51:59;;;;;;;13.00;12.52;;;;;;;;;;5066062;28;20423;-50
2021/10/24 04:54:26;;;;;;;14.20;14.05;;;;;;;;;;5060934;28;20040;-48
2021/10/24 04:56:53;;;;;;;14.68;14.07;;;;;;;;;;5069490;28;20044;-47
2021/10/24 04:59:20;;;;;;;13.07;12.82;;;;;;;;;;5068091;28;20465;-49
2021/10/24 05:01:47;;;;;;;11.95;11.63;;;;;;;;;;5069601;28;20507;-47
2021/10/24 05:04:14;;;;;;;11.23;10.82;;;;;;;;;;5067686;28;20047;-47
2021/10/24 05:06:40;;;;;;;11.75;11.52;;;;;;;;;;5068502;28;20044;-44
2021/10/24 05:09:07;;;;;;;12.38;12.02;;;;;;;;;;5066824;28;20033;-46
2021/10/24 05:11:34;;;;;;;7.88;7.57;;;;;;;;;;5069167;28;20460;-49
2021/10/24 05:14:02;;;;;;;12.55;12.30;;;;;;;;;;5068916;28;20579;-49
2021/10/24 05:16:29;;;;;;;14.88;14.43;;;;;;;;;;5064844;28;20103;-51
2021/10/24 05:18:56;;;;;;;13.75;13.32;;;;;;;;;;5058650;28;20116;-48
2021/10/24 05:21:23;;;;;;;14.85;14.45;;;;;;;;;;5069593;28;20040;-47
2021/10/24 05:23:50;;;;;;;11.85;11.65;;;;;;;;;;5063979;28;20388;-48
2021/10/24 05:26:17;;;;;;;14.32;14.02;;;;;;;;;;5063394;28;20045;-45
2021/10/24 05:28:43;;;;;;;16.02;15.43;;;;;;;;;;5069222;28;20044;-49
2021/10/24 05:31:10;;;;;;;15.20;14.95;;;;;;;;;;5069067;28;20033;-45
2021/10/24 05:33:37;;;;;;;14.63;13.98;;;;;;;;;;5069566;28;20045;-48
2021/10/24 05:36:04;;;;;;;16.08;15.63;;;;;;;;;;5068169;28;20040;-49
2021/10/24 05:38:31;;;;;;;15.77;15.38;;;;;;;;;;5069032;28;20481;-47
2021/10/24 05:40:58;;;;;;;15.07;14.88;;;;;;;;;;5061942;28;20048;-46
2021/10/24 05:43:25;;;;;;;14.95;14.75;;;;;;;;;;5057278;28;20430;-48
2021/10/24 05:45:52;;;;;;;14.70;14.27;;;;;;;;;;5057021;28;20029;-46
2021/10/24 05:48:19;;;;;;;14.45;14.10;;;;;;;;;;5062959;28;20492;-47
2021/10/24 05:50:46;;;;;;;14.93;14.18;;;;;;;;;;5067875;28;20124;-48
2021/10/24 05:53:13;;;;;;;16.35;15.70;;;;;;;;;;5062589;28;20028;-48
2021/10/24 05:55:41;;;;;;;16.23;15.77;;;;;;;;;;5059020;28;20098;-52
2021/10/24 05:58:07;;;;;;;15.98;15.68;;;;;;;;;;5069538;28;20484;-50
2021/10/24 06:00:34;;;;;;;16.70;16.40;;;;;;;;;;5065732;28;20055;-47
2021/10/24 06:03:04;;;;;;;15.88;15.68;;;;;;;;;;5068356;28;20052;-51
2021/10/24 06:05:34;;;;;;;17.10;16.48;;;;;;;;;;5060654;28;20036;-46
2021/10/24 06:08:03;;;;;;;16.95;16.75;;;;;;;;;;5059962;28;20051;-49
2021/10/24 06:10:37;;;;;;;16.73;16.42;;;;;;;;;;5070196;28;20048;-49
2021/10/24 06:13:04;;;;;;;16.27;15.95;;;;;;;;;;5067016;28;20044;-49
2021/10/24 06:15:32;;;;;;;14.73;14.52;;;;;;;;;;5067888;28;20044;-50
2021/10/24 06:17:59;;;;;;;16.42;15.75;;;;;;;;;;5063712;28;20052;-49
2021/10/24 06:20:26;;;;;;;16.30;15.75;;;;;;;;;;5065590;28;20507;-47
2021/10/24 06:22:53;;;;;;;14.82;14.52;;;;;;;;;;5065316;28;20033;-47
2021/10/24 06:25:20;;;;;;;15.43;15.23;;;;;;;;;;5068059;28;20123;-50
2021/10/24 06:27:46;;;;;;;21.98;20.70;;;;;;;;;;5068713;28;20044;-49
2021/10/24 06:30:14;;;;;;;23.20;21.95;;;;;;;;;;5068848;28;20044;-46
2021/10/24 06:32:41;;;;;;;16.55;16.20;;;;;;;;;;5065818;28;20056;-46
2021/10/24 06:35:08;;;;;;;18.45;17.85;;;;;;;;;;5059202;28;20455;-46
2021/10/24 06:37:40;;;;;;;18.92;18.45;;;;;;;;;;5068472;28;20489;-47
2021/10/24 06:40:07;;;;;;;13.70;13.38;;;;;;;;;;5068116;28;20083;-46
2021/10/24 06:42:34;;;;;;;13.93;12.73;;;;;;;;;;5058179;28;20825;-46
2021/10/24 06:45:01;;;;;;;14.23;14.05;;;;;;;;;;5066394;28;20041;-46
2021/10/24 06:47:28;;;;;;;6.43;6.32;;;;;;;;;;5055780;28;20046;-48
2021/10/24 06:49:54;;;;;;;10.38;10.27;;;;;;;;;;5062850;28;20045;-47
2021/10/24 06:52:21;;;;;;;26.80;12.00;;;;;;;;;;5063228;28;20051;-47
2021/10/24 06:54:48;;;;;;;7.68;7.32;;;;;;;;;;5071196;28;20051;-48
2021/10/24 06:57:15;;;;;;;4.30;4.20;;;;;;;;;;5070473;28;20473;-47
2021/10/24 06:59:45;;;;;;;4.80;3.70;;;;;;;;;;5071239;28;20053;-49
2021/10/24 07:02:11;;;;;;;9.57;9.48;;;;;;;;;;5062851;28;20065;-46
2021/10/24 07:04:38;;;;;;;2.70;2.50;;;;;;;;;;5062328;28;20032;-49
2021/10/24 07:07:05;;;;;;;9.23;8.70;;;;;;;;;;5072622;28;20041;-50
2021/10/24 07:09:32;;;;;;;5.47;5.15;;;;;;;;;;5066720;28;20488;-47
2021/10/24 07:12:08;;;;;;;4.70;4.60;;;;;;;;;;5058483;28;20032;-46
2021/10/24 07:14:35;;;;;;;63.03;10.15;;;;;;;;;;5071241;28;20118;-48
2021/10/24 07:17:01;;;;;;;4.25;2.10;;;;;;;;;;5069226;28;20036;-46
2021/10/24 07:19:28;;;;;;;5.55;5.05;;;;;;;;;;5065562;28;20367;-45
2021/10/24 07:21:55;;;;;;;3.22;3.13;;;;;;;;;;5068957;28;20048;-48
2021/10/24 07:24:21;;;;;;;2.63;2.42;;;;;;;;;;5064422;28;20473;-47
2021/10/24 07:26:48;;;;;;;1.90;1.90;;;;;;;;;;5064811;28;20044;-49
2021/10/24 07:29:15;;;;;;;6.45;3.45;;;;;;;;;;5066538;28;20094;-48
2021/10/24 07:31:42;;;;;;;3.47;3.20;;;;;;;;;;5071121;28;20048;-48
2021/10/24 07:34:09;;;;;;;1.65;1.55;;;;;;;;;;5065598;28;20136;-47
2021/10/24 07:36:36;;;;;;;3.47;3.25;;;;;;;;;;5062880;28;20428;-47
2021/10/24 07:39:03;;;;;;;2.72;2.60;;;;;;;;;;5070211;28;20036;-46
2021/10/24 07:41:29;;;;;;;3.50;1.30;;;;;;;;;;5066329;28;20041;-48
2021/10/24 07:43:56;;;;;;;1.85;1.48;;;;;;;;;;5070939;28;20102;-49
2021/10/24 07:46:23;;;;;;;1.08;1.08;;;;;;;;;;5070671;28;20064;-46
2021/10/24 07:48:52;;;;;;;0.93;0.90;;;;;;;;;;5069418;28;20428;-47
2021/10/24 07:51:20;;;;;;;1.42;1.42;;;;;;;;;;5056387;28;20049;-49
2021/10/24 07:53:46;;;;;;;0.90;0.90;;;;;;;;;;5065585;28;20794;-50
2021/10/24 07:56:13;;;;;;;2.78;1.10;;;;;;;;;;5052779;28;20036;-48
2021/10/24 07:58:41;;;;;;;1.25;1.10;;;;;;;;;;5072116;28;20480;-46
2021/10/24 08:01:07;;;;;;;1.17;1.13;;;;;;;;;;5070859;28;20056;-50
2021/10/24 08:03:36;;;;;;;0.90;0.90;;;;;;;;;;5072377;28;20043;-49
2021/10/24 08:06:03;;;;;;;2.53;1.10;;;;;;;;;;5071819;28;20044;-49
2021/10/24 08:08:30;;;;;;;1.70;0.90;;;;;;;;;;5065785;28;20075;-47
2021/10/24 08:10:57;;;;;;;1.08;1.00;;;;;;;;;;5076311;28;20070;-46
2021/10/24 08:13:23;;;;;;;1.15;1.00;;;;;;;;;;5062382;28;20045;-49
2021/10/24 08:15:51;;;;;;;0.90;0.90;;;;;;;;;;5054987;28;20037;-47
2021/10/24 08:18:18;;;;;;;1.85;1.00;;;;;;;;;;5064804;28;20040;-49
2021/10/24 08:20:46;;;;;;;0.93;0.93;;;;;;;;;;5057916;28;20040;-47
2021/10/24 08:23:16;;;;;;;2.20;1.00;;;;;;;;;;5061703;28;20080;-46
2021/10/24 08:25:43;;;;;;;0.90;0.90;;;;;;;;;;5068265;28;20041;-48
2021/10/24 08:28:10;;;;;;;0.90;0.90;;;;;;;;;;5070956;28;20036;-47
2021/10/24 08:30:37;;;;;;;1.60;1.00;;;;;;;;;;5063994;28;20051;-49
2021/10/24 08:33:04;;;;;;;1.00;1.00;;;;;;;;;;5058416;28;20032;-48
2021/10/24 08:35:32;;;;;;;0.90;0.90;;;;;;;;;;5071776;28;20041;-49
2021/10/24 08:37:59;;;;;;;2.08;1.20;;;;;;;;;;5067716;28;20058;-49
2021/10/24 08:40:27;;;;;;;1.17;1.08;;;;;;;;;;5065207;28;20056;-49
2021/10/24 08:42:59;;;;;;;0.98;0.98;;;;;;;;;;5063162;28;20051;-48
2021/10/24 08:45:27;;;;;;;0.90;0.90;;;;;;;;;;5064371;28;20033;-50
2021/10/24 08:47:55;;;;;;;0.80;0.80;;;;;;;;;;5065087;28;20038;-47
2021/10/24 08:50:22;;;;;;;1.00;0.90;;;;;;;;;;5066697;28;20070;-47
2021/10/24 08:52:52;;;;;;;3.70;1.10;;;;;;;;;;5053790;28;20021;-49
2021/10/24 08:55:19;;;;;;;2.63;1.20;;;;;;;;;;5064066;28;20078;-48
2021/10/24 08:57:49;;;;;;;3.53;0.90;;;;;;;;;;5067799;28;20508;-53
2021/10/24 09:00:37;;;;;;;0.88;0.88;;;;;;;;;;5068073;28;20605;-46
2021/10/24 09:03:09;;;;;;;0.90;0.90;;;;;;;;;;5065558;28;20455;-48
2021/10/24 09:05:43;;;;;;;1.10;1.00;;;;;;;;;;5065023;28;20029;-49
2021/10/24 09:08:11;;;;;;;0.80;0.80;;;;;;;;;;5068529;28;20044;-48
2021/10/24 09:10:39;;;;;;;1.95;0.90;;;;;;;;;;5063081;28;20044;-48
2021/10/24 09:13:07;;;;;;;0.80;0.80;;;;;;;;;;5064748;28;20125;-45
2021/10/24 09:15:48;;;;;;;0.80;0.80;;;;;;;;;;5068663;28;20044;-46
2021/10/24 09:18:16;;;;;;;0.90;0.90;;;;;;;;;;5064643;28;20037;-46
2021/10/24 09:20:51;;;;;;;1.00;1.00;;;;;;;;;;5068040;28;20091;-46
2021/10/24 09:23:18;;;;;;;0.82;0.80;;;;;;;;;;5063944;28;20128;-45
2021/10/24 09:25:49;;;;;;;1.00;0.95;;;;;;;;;;5062446;28;20044;-46
2021/10/24 09:28:17;;;;;;;0.90;0.90;;;;;;;;;;5063142;28;20060;-46
2021/10/24 09:30:45;;;;;;;1.85;0.85;;;;;;;;;;5067261;28;20033;-45
2021/10/24 09:33:12;;;;;;;2.38;1.50;;;;;;;;;;5069745;28;20040;-49
2021/10/24 09:35:43;;;;;;;2.08;0.90;;;;;;;;;;5068627;28;20080;-48
2021/10/24 09:38:14;;;;;;;2.05;0.90;;;;;;;;;;5069663;28;20090;-46
2021/10/24 09:40:42;;;;;;;1.38;0.80;;;;;;;;;;5069827;28;20060;-46
2021/10/24 09:43:09;;;;;;;0.90;0.90;;;;;;;;;;5066993;28;20040;-45
2021/10/24 09:45:37;;;;;;;0.93;0.90;;;;;;;;;;5067316;28;20585;-50
2021/10/24 09:48:07;;;;;;;1.52;0.85;;;;;;;;;;5062020;28;20072;-47
2021/10/24 09:50:39;;;;;;;0.85;0.85;;;;;;;;;;5057758;28;20040;-49
2021/10/24 09:53:13;;;;;;;2.35;2.25;;;;;;;;;;5067732;28;20037;-46
2021/10/24 09:55:41;;;;;;;1.00;0.80;;;;;;;;;;5067481;28;20052;-46
2021/10/24 09:58:09;;;;;;;1.05;0.80;;;;;;;;;;5060148;28;20705;-45
2021/10/24 10:00:36;;;;;;;0.90;0.90;;;;;;;;;;5062880;28;20098;-46
2021/10/24 10:03:05;;;;;;;2.20;0.82;;;;;;;;;;5059376;28;20469;-47
2021/10/24 10:05:33;;;;;;;1.98;0.80;;;;;;;;;;5067029;28;20044;-49
2021/10/24 10:07:59;;;;;;;1.15;0.80;;;;;;;;;;5063716;28;20068;-45
2021/10/24 10:10:27;;;;;;;0.80;0.80;;;;;;;;;;5067899;28;20059;-48
2021/10/24 10:12:56;;;;;;;0.70;0.70;;;;;;;;;;5062466;28;20037;-46
2021/10/24 10:15:27;;;;;;;2.25;0.90;;;;;;;;;;5059413;28;20119;-47
2021/10/24 10:18:00;;;;;;;0.90;0.90;;;;;;;;;;5065270;28;20040;-45
2021/10/24 10:20:28;;;;;;;1.45;0.75;;;;;;;;;;5062105;28;20217;-47
2021/10/24 10:22:59;;;;;;;0.98;0.98;;;;;;;;;;5069060;28;20036;-46
2021/10/24 10:25:26;;;;;;;0.90;0.90;;;;;;;;;;5066194;28;20036;-45
2021/10/24 10:27:55;;;;;;;0.80;0.80;;;;;;;;;;5068516;28;20044;-44
2021/10/24 10:30:33;;;;;;;1.25;0.70;;;;;;;;;;5068687;28;20068;-43
2021/10/24 10:33:01;;;;;;;0.80;0.80;;;;;;;;;;5065807;28;20488;-46
2021/10/24 10:35:28;;;;;;;0.90;0.90;;;;;;;;;;5064995;28;20452;-49
2021/10/24 10:38:05;;;;;;;1.52;1.42;;;;;;;;;;5065529;28;20101;-46
2021/10/24 10:40:34;;;;;;;0.90;0.90;;;;;;;;;;5064314;28;20102;-44
2021/10/24 10:43:09;;;;;;;0.80;0.80;;;;;;;;;;5063143;28;20068;-45
2021/10/24 10:45:37;;;;;;;0.80;0.80;;;;;;;;;;5063802;28;20048;-49
2021/10/24 10:48:06;;;;;;;1.85;0.80;;;;;;;;;;5066510;28;20156;-43
2021/10/24 10:50:39;;;;;;;0.80;0.80;;;;;;;;;;5058911;28;20047;-45
2021/10/24 10:53:07;;;;;;;4.13;1.95;;;;;;;;;;5067642;28;20393;-47
2021/10/24 10:55:52;;;;;;;1.65;1.45;;;;;;;;;;5056105;28;20090;-49
2021/10/24 10:58:43;;;;;;;0.80;0.80;;;;;;;;;;5065122;28;20056;-49
2021/10/24 11:01:20;;;;;;;0.80;0.80;;;;;;;;;;5064302;28;20143;-46
2021/10/24 11:03:56;;;;;;;0.70;0.70;;;;;;;;;;5060454;28;20844;-46
2021/10/24 11:06:22;;;;;;;0.80;0.80;;;;;;;;;;5058677;28;20043;-48
2021/10/24 11:08:50;;;;;;;2.22;0.85;;;;;;;;;;5055508;28;20524;-46
2021/10/24 11:11:36;;;;;;;0.70;0.70;;;;;;;;;;5067684;28;20075;-47
2021/10/24 11:14:15;;;;;;;1.00;0.70;;;;;;;;;;5062363;28;20119;-48
2021/10/24 11:16:51;;;;;;;0.80;0.80;;;;;;;;;;5057810;28;20094;-44
2021/10/24 11:19:28;;;;;;;0.80;0.80;;;;;;;;;;5065452;28;20037;-49
2021/10/24 11:21:56;;;;;;;1.15;0.70;;;;;;;;;;5062999;28;20544;-46
2021/10/24 11:24:43;;;;;;;2.15;0.80;;;;;;;;;;5065030;28;20102;-45
2021/10/24 11:27:15;;;;;;;1.27;0.73;;;;;;;;;;5068082;28;20041;-47
2021/10/24 11:29:49;;;;;;;2.10;0.80;;;;;;;;;;5069267;28;20119;-48
2021/10/24 11:32:23;;;;;;;0.88;0.88;;;;;;;;;;5068663;28;20041;-45
2021/10/24 11:34:50;;;;;;;0.80;0.80;;;;;;;;;;5071364;28;20040;-47
2021/10/24 11:37:17;;;;;;;1.48;0.90;;;;;;;;;;5063076;28;20040;-43
2021/10/24 11:39:47;;;;;;;0.80;0.80;;;;;;;;;;5073352;28;20427;-44
2021/10/24 11:42:15;;;;;;;0.80;0.80;;;;;;;;;;5071183;28;20082;-46
2021/10/24 11:44:42;;;;;;;1.58;0.90;;;;;;;;;;5071155;28;20059;-47
2021/10/24 11:47:13;;;;;;;1.17;0.80;;;;;;;;;;5071739;28;20076;-44
2021/10/24 11:49:52;;;;;;;1.10;0.80;;;;;;;;;;5070148;28;20041;-45
2021/10/24 11:52:26;;;;;;;0.90;0.90;;;;;;;;;;5063362;28;20041;-43
2021/10/24 11:55:10;;;;;;;1.52;0.80;;;;;;;;;;5065477;28;20037;-46
2021/10/24 12:00:28;;;;;;;2.05;0.80;;;;;;;;;;5073082;28;20225;-45
2021/10/24 12:02:59;;;;;;;0.80;0.80;;;;;;;;;;5067824;28;20036;-45
2021/10/24 12:05:27;;;;;;;0.80;0.80;;;;;;;;;;5068043;28;20115;-44
2021/10/24 12:07:54;;;;;;;1.60;0.90;;;;;;;;;;5073700;28;20412;-44
2021/10/24 12:10:32;;;;;;;2.55;0.90;;;;;;;;;;5067577;28;20036;-46
2021/10/24 12:13:02;;;;;;;0.73;0.73;;;;;;;;;;5058487;28;20045;-43
2021/10/24 12:15:36;;;;;;;0.70;0.70;;;;;;;;;;5070206;28;20431;-46
2021/10/24 12:18:12;;;;;;;2.90;0.80;;;;;;;;;;5069970;28;20043;-46
2021/10/24 12:20:52;;;;;;;1.27;0.80;;;;;;;;;;5058240;28;20040;-43
2021/10/24 12:23:19;;;;;;;0.80;0.80;;;;;;;;;;5064761;28;20385;-43
2021/10/24 12:25:50;;;;;;;1.23;1.10;;;;;;;;;;5069778;28;20057;-47
2021/10/24 12:28:26;;;;;;;1.63;0.80;;;;;;;;;;5065378;28;20036;-45
2021/10/24 12:30:55;;;;;;;0.90;0.80;;;;;;;;;;5064794;28;20094;-46
2021/10/24 12:33:25;;;;;;;2.45;1.70;;;;;;;;;;5070633;28;20075;-45
2021/10/24 12:35:54;;;;;;;2.17;1.90;;;;;;;;;;5060441;28;20103;-47
2021/10/24 12:38:21;;;;;;;1.73;0.80;;;;;;;;;;5070142;28;20140;-45
2021/10/24 12:40:51;;;;;;;0.80;0.80;;;;;;;;;;5063604;28;20110;-45
2021/10/24 12:43:18;;;;;;;1.45;0.90;;;;;;;;;;5069760;28;20047;-45
2021/10/24 12:46:00;;;;;;;1.50;0.90;;;;;;;;;;5067410;28;20041;-44
2021/10/24 12:48:43;;;;;;;1.63;0.90;;;;;;;;;;5069220;28;20123;-44
2021/10/24 12:51:19;;;;;;;5.38;0.93;;;;;;;;;;5064890;28;20037;-44
2021/10/24 12:53:46;;;;;;;2.47;0.95;;;;;;;;;;5061133;28;20489;-44
2021/10/24 12:56:13;;;;;;;0.80;0.80;;;;;;;;;;5068163;28;20047;-44
2021/10/24 12:58:40;;;;;;;1.00;0.80;;;;;;;;;;5068960;28;20412;-43
2021/10/24 13:01:06;;;;;;;1.33;1.23;;;;;;;;;;5071379;28;20131;-43
2021/10/24 13:03:34;;;;;;;1.75;0.80;;;;;;;;;;5061288;28;20523;-45
2021/10/24 13:06:03;;;;;;;0.93;0.80;;;;;;;;;;5063102;28;20531;-46
2021/10/24 13:08:29;;;;;;;0.95;0.80;;;;;;;;;;5070625;28;20048;-46
2021/10/24 13:10:56;;;;;;;0.80;0.80;;;;;;;;;;5067824;28;20040;-44
2021/10/24 13:13:23;;;;;;;1.08;1.08;;;;;;;;;;5070197;28;20082;-46
2021/10/24 13:15:50;;;;;;;1.77;0.90;;;;;;;;;;5071952;28;20131;-43
2021/10/24 13:18:16;;;;;;;1.27;0.80;;;;;;;;;;5067685;28;20040;-45
2021/10/24 13:20:45;;;;;;;1.63;1.20;;;;;;;;;;5054135;28;20516;-43
2021/10/24 13:23:12;;;;;;;2.03;0.90;;;;;;;;;;5070131;28;20083;-47
2021/10/24 13:25:38;;;;;;;1.05;0.85;;;;;;;;;;5057015;28;20380;-49
2021/10/24 13:28:05;;;;;;;0.80;0.80;;;;;;;;;;5062507;28;20447;-45
2021/10/24 13:30:33;;;;;;;0.80;0.80;;;;;;;;;;5062936;28;20081;-48
2021/10/24 13:33:00;;;;;;;3.42;0.80;;;;;;;;;;5059235;28;20123;-48
2021/10/24 13:35:27;;;;;;;0.80;0.80;;;;;;;;;;5061466;28;20045;-47
2021/10/24 13:37:54;;;;;;;1.42;0.95;;;;;;;;;;5066197;28;20055;-48
2021/10/24 13:40:20;;;;;;;0.90;0.90;;;;;;;;;;5070136;28;20044;-45
2021/10/24 13:42:48;;;;;;;1.73;1.00;;;;;;;;;;5070512;28;20044;-48
2021/10/24 13:45:16;;;;;;;1.15;0.80;;;;;;;;;;5066562;28;20123;-45
2021/10/24 13:47:43;;;;;;;0.90;0.90;;;;;;;;;;5061861;28;20091;-49
2021/10/24 13:50:10;;;;;;;3.15;1.63;;;;;;;;;;5067030;28;20071;-44
2021/10/24 13:52:37;;;;;;;0.80;0.80;;;;;;;;;;5069329;28;20127;-46
2021/10/24 13:55:07;;;;;;;1.52;0.80;;;;;;;;;;5068780;28;20036;-47
2021/10/24 13:57:34;;;;;;;4.15;0.90;;;;;;;;;;5058135;28;20033;-45
2021/10/24 14:00:03;;;;;;;1.83;0.75;;;;;;;;;;5058894;28;20040;-47
2021/10/24 14:02:29;;;;;;;1.00;0.90;;;;;;;;;;5064915;28;20071;-46
2021/10/24 14:04:57;;;;;;;2.72;1.00;;;;;;;;;;5066931;28;20040;-47
2021/10/24 14:07:24;;;;;;;2.05;0.80;;;;;;;;;;5061810;28;20045;-45
2021/10/24 14:09:51;;;;;;;2.35;0.80;;;;;;;;;;5062374;28;20036;-46
2021/10/24 14:12:18;;;;;;;2.47;0.80;;;;;;;;;;5065151;28;20033;-45
2021/10/24 14:14:45;;;;;;;2.63;0.80;;;;;;;;;;5067250;28;20036;-45
2021/10/24 14:17:11;;;;;;;0.80;0.80;;;;;;;;;;5064825;28;20059;-45
2021/10/24 14:19:38;;;;;;;2.97;0.80;;;;;;;;;;5066920;28;20036;-44
2021/10/24 14:22:05;;;;;;;1.52;1.15;;;;;;;;;;5060762;28;20416;-45
2021/10/24 14:24:32;;;;;;;3.70;0.80;;;;;;;;;;5059638;28;20564;-48
2021/10/24 14:26:58;;;;;;;3.47;0.80;;;;;;;;;;5060110;28;20039;-45
2021/10/24 14:29:26;;;;;;;2.15;0.90;;;;;;;;;;5059533;28;20095;-45
2021/10/24 14:31:53;;;;;;;1.75;0.80;;;;;;;;;;5060022;28;20124;-45
2021/10/24 14:34:20;;;;;;;1.00;0.90;;;;;;;;;;5060286;28;20036;-44
2021/10/24 14:36:55;;;;;;;1.52;0.80;;;;;;;;;;5067999;28;20476;-46
2021/10/24 14:39:21;;;;;;;1.10;1.00;;;;;;;;;;5060997;28;20040;-44
2021/10/24 14:41:48;;;;;;;0.80;0.80;;;;;;;;;;5068788;28;20043;-48
2021/10/24 14:44:15;;;;;;;0.90;0.90;;;;;;;;;;5064921;28;20056;-45
2021/10/24 14:46:41;;;;;;;1.08;0.80;;;;;;;;;;5064241;28;20040;-45